createdAt,value
2016-03-10T00:00:57.876Z,1.2
2016-03-10T00:01:57.862Z,1.2
2016-03-10T00:02:57.865Z,1.17
2016-03-10T00:03:57.883Z,1.1
2016-03-10T00:04:57.902Z,1.05
2016-03-10T00:05:57.942Z,1.05
2016-03-10T00:06:57.929Z,1.08
2016-03-10T00:07:57.931Z,1.16
2016-03-10T00:08:57.934Z,1.14
2016-03-10T00:09:57.953Z,1.05
2016-03-10T00:10:57.986Z,1.1
2016-03-10T00:11:57.989Z,1.12
2016-03-10T00:12:58.007Z,1.17
2016-03-10T00:13:57.994Z,1.14
2016-03-10T00:14:58.013Z,1.13
2016-03-10T00:15:58.031Z,1.1
2016-03-10T00:16:58.049Z,1.14
2016-03-10T00:17:58.053Z,1.12
2016-03-10T00:18:58.055Z,1.14
2016-03-10T00:19:58.074Z,1.13
2016-03-10T00:20:58.107Z,1.17
2016-03-10T00:21:58.110Z,1.19
2016-03-10T00:22:58.127Z,1.14
2016-03-10T00:23:58.131Z,1.06
2016-03-10T00:24:58.149Z,1.08
2016-03-10T00:25:58.152Z,1.06
2016-03-10T00:26:58.170Z,1.05
2016-03-10T00:27:58.173Z,1.04
2016-03-10T00:28:58.176Z,0.96
2016-03-10T00:29:58.193Z,0.87
2016-03-10T00:30:58.229Z,0.88
2016-03-10T00:31:58.235Z,1.01
2016-03-10T00:32:58.243Z,0.95
2016-03-10T00:33:58.245Z,1.02
2016-03-10T00:34:58.264Z,1.01
2016-03-10T00:35:58.283Z,0.99
2016-03-10T00:36:58.286Z,0.99
2016-03-10T00:37:58.310Z,0.99
2016-03-10T00:38:58.328Z,1.01
2016-03-10T00:39:58.331Z,0.87
2016-03-10T00:40:58.364Z,0.96
2016-03-10T00:41:58.337Z,0.86
2016-03-10T00:42:58.354Z,0.83
2016-03-10T00:43:58.373Z,0.83
2016-03-10T00:44:58.392Z,0.78
2016-03-10T00:45:58.379Z,0.83
2016-03-10T00:46:58.412Z,0.91
2016-03-10T00:47:58.462Z,1.01
2016-03-10T00:48:58.417Z,0.94
2016-03-10T00:49:58.436Z,0.94
2016-03-10T00:50:58.454Z,0.99
2016-03-10T00:51:58.457Z,0.92
2016-03-10T00:52:58.476Z,0.8
2016-03-10T00:53:58.525Z,0.73
2016-03-10T00:54:58.511Z,0.74
2016-03-10T00:55:58.499Z,0.68
2016-03-10T00:56:58.517Z,0.78
2016-03-10T00:57:58.551Z,0.87
2016-03-10T00:58:58.555Z,0.84
2016-03-10T00:59:58.557Z,0.78
2016-03-10T01:00:58.560Z,0.78
2016-03-10T01:01:58.562Z,0.84
2016-03-10T01:02:58.596Z,0.76
2016-03-10T01:03:58.598Z,0.68
2016-03-10T01:04:58.617Z,0.84
2016-03-10T01:05:58.635Z,0.78
2016-03-10T01:06:58.622Z,0.86
2016-03-10T01:07:58.640Z,0.88
2016-03-10T01:08:58.659Z,0.86
2016-03-10T01:09:58.662Z,0.87
2016-03-10T01:10:58.680Z,0.98
2016-03-10T01:11:58.698Z,1.05
2016-03-10T01:12:58.717Z,1.06
2016-03-10T01:13:58.720Z,1.06
2016-03-10T01:14:58.737Z,1.08
2016-03-10T01:15:58.740Z,1.02
2016-03-10T01:16:58.758Z,0.94
2016-03-10T01:17:58.761Z,0.98
2016-03-10T01:18:58.779Z,0.92
2016-03-10T01:19:58.829Z,0.99
2016-03-10T01:20:58.800Z,0.96
2016-03-10T01:21:58.662Z,0.86
2016-03-10T01:22:58.836Z,0.88
2016-03-10T01:23:58.840Z,0.94
2016-03-10T01:24:58.842Z,0.94
2016-03-10T01:25:58.877Z,0.95
2016-03-10T01:26:58.864Z,1.05
2016-03-10T01:27:58.883Z,1.01
2016-03-10T01:28:58.728Z,0.98
2016-03-10T01:29:58.903Z,1.06
2016-03-10T01:30:58.921Z,1.08
2016-03-10T01:31:58.939Z,1.13
2016-03-10T01:32:58.942Z,1.2
2016-03-10T01:33:58.945Z,1.24
2016-03-10T01:34:58.963Z,1.26
2016-03-10T01:35:58.996Z,1.28
2016-03-10T01:36:58.984Z,1.3
2016-03-10T01:37:59.002Z,1.35
2016-03-10T01:38:59.005Z,1.34
2016-03-10T01:39:59.023Z,1.3
2016-03-10T01:40:59.043Z,1.28
2016-03-10T01:41:59.029Z,1.24
2016-03-10T01:42:59.063Z,1.22
2016-03-10T01:43:59.081Z,1.16
2016-03-10T01:44:59.068Z,1.19
2016-03-10T01:45:59.086Z,1.13
2016-03-10T01:46:59.105Z,1.16
2016-03-10T01:47:59.123Z,1.1
2016-03-10T01:48:59.126Z,1.06
2016-03-10T01:49:59.128Z,1.05
2016-03-10T01:50:59.162Z,1.1
2016-03-10T01:51:59.243Z,1.05
2016-03-10T01:52:59.168Z,1.08
2016-03-10T01:53:59.186Z,1.06
2016-03-10T01:54:59.205Z,0.96
2016-03-10T01:55:59.208Z,0.99
2016-03-10T01:56:59.225Z,1.04
2016-03-10T01:57:59.228Z,1.01
2016-03-10T01:58:59.261Z,0.94
2016-03-10T01:59:59.249Z,0.87
2016-03-10T02:00:59.314Z,0.99
2016-03-10T02:01:59.316Z,1.04
2016-03-10T02:02:59.304Z,0.99
2016-03-10T02:03:59.291Z,0.99
2016-03-10T02:04:59.324Z,0.94
2016-03-10T02:05:59.313Z,0.94
2016-03-10T02:06:59.346Z,0.88
2016-03-10T02:07:59.333Z,0.81
2016-03-10T02:08:59.368Z,0.77
2016-03-10T02:09:59.371Z,0.73
2016-03-10T02:10:59.388Z,0.8
2016-03-10T02:11:59.391Z,0.74
2016-03-10T02:12:59.409Z,0.83
2016-03-10T02:13:59.427Z,0.68
2016-03-10T02:14:59.430Z,0.66
2016-03-10T02:15:59.448Z,0.62
2016-03-10T02:16:59.451Z,0.58
2016-03-10T02:17:59.484Z,0.66
2016-03-10T02:18:59.456Z,0.65
2016-03-10T02:19:59.475Z,0.56
2016-03-10T02:20:59.509Z,0.46
2016-03-10T02:21:59.511Z,0.5
2016-03-10T02:22:59.531Z,0.52
2016-03-10T02:23:59.533Z,0.4
2016-03-10T02:24:59.551Z,0.34
2016-03-10T02:25:59.553Z,0.41
2016-03-10T02:26:59.572Z,0.4
2016-03-10T02:27:59.574Z,0.29
2016-03-10T02:28:59.593Z,0.34
2016-03-10T02:29:59.611Z,0.4
2016-03-10T02:30:59.614Z,0.37
2016-03-10T02:31:59.632Z,0.34
2016-03-10T02:32:59.635Z,0.22
2016-03-10T02:33:59.638Z,0.23
2016-03-10T02:34:59.702Z,0.29
2016-03-10T02:35:59.658Z,0.36
2016-03-10T02:36:59.693Z,0.25
2016-03-10T02:37:59.680Z,0.22
2016-03-10T02:38:59.713Z,0.29
2016-03-10T02:39:59.716Z,0.28
2016-03-10T02:40:59.734Z,0.23
2016-03-10T02:41:59.768Z,0.28
2016-03-10T02:42:59.771Z,0.23
2016-03-10T02:43:59.774Z,0.18
2016-03-10T02:44:59.776Z,0.21
2016-03-10T02:45:59.779Z,0.25
2016-03-10T02:46:59.797Z,0.21
2016-03-10T02:47:59.801Z,0.26
2016-03-10T02:48:59.834Z,0.34
2016-03-10T02:49:59.821Z,0.25
2016-03-10T02:50:59.855Z,0.34
2016-03-10T02:51:59.859Z,0.36
2016-03-10T02:52:59.876Z,0.44
2016-03-10T02:53:59.895Z,0.37
2016-03-10T02:54:59.897Z,0.4
2016-03-10T02:55:59.900Z,0.44
2016-03-10T02:56:59.918Z,0.43
2016-03-10T02:57:59.937Z,0.55
2016-03-10T02:58:59.939Z,0.5
2016-03-10T02:59:59.972Z,0.56
2016-03-10T03:00:59.960Z,0.52
2016-03-10T03:01:59.963Z,0.52
2016-03-10T03:02:59.997Z,0.46
2016-03-10T03:03:59.983Z,0.43
2016-03-10T03:05:00.018Z,0.41
2016-03-10T03:05:59.864Z,0.37
2016-03-10T03:07:00.024Z,0.41
2016-03-10T03:08:00.041Z,0.36
2016-03-10T03:09:00.044Z,0.37
2016-03-10T03:10:00.062Z,0.31
2016-03-10T03:11:00.065Z,0.26
2016-03-10T03:12:00.068Z,0.36
2016-03-10T03:13:00.133Z,0.21
2016-03-10T03:14:00.104Z,0.26
2016-03-10T03:15:00.138Z,0.26
2016-03-10T03:16:00.141Z,0.23
2016-03-10T03:17:00.144Z,0.25
2016-03-10T03:18:00.146Z,0.26
2016-03-10T03:19:00.149Z,0.43
2016-03-10T03:20:00.184Z,0.37
2016-03-10T03:21:00.202Z,0.28
2016-03-10T03:22:00.204Z,0.25
2016-03-10T03:23:00.192Z,0.26
2016-03-10T03:24:00.209Z,0.19
2016-03-10T03:25:00.275Z,0
2016-03-10T03:26:00.246Z,0.04
2016-03-10T03:27:00.265Z,0.03
2016-03-10T03:28:00.111Z,0.08
2016-03-10T03:29:00.269Z,0.01
2016-03-10T03:30:00.288Z,0.01
2016-03-10T03:31:00.291Z,0.08
2016-03-10T03:32:00.309Z,0
2016-03-10T03:33:00.327Z,0.05
2016-03-10T03:34:00.330Z,0.05
2016-03-10T03:35:00.349Z,0.07
2016-03-10T03:36:00.352Z,0.01
2016-03-10T03:37:00.369Z,0.12
2016-03-10T03:38:00.387Z,0.11
2016-03-10T03:39:00.390Z,0.15
2016-03-10T03:40:00.408Z,0.12
2016-03-10T03:41:00.411Z,0.18
2016-03-10T03:42:00.429Z,0.25
2016-03-10T03:43:00.463Z,0.15
2016-03-10T03:44:00.434Z,0.22
2016-03-10T03:45:00.453Z,0.23
2016-03-10T03:46:00.456Z,0.21
2016-03-10T03:47:00.490Z,0.25
2016-03-10T03:48:00.508Z,0.21
2016-03-10T03:49:00.527Z,0.22
2016-03-10T03:50:00.514Z,0.28
2016-03-10T03:51:00.532Z,0.37
2016-03-10T03:52:00.534Z,0.25
2016-03-10T03:53:00.568Z,0.26
2016-03-10T03:54:00.571Z,0.29
2016-03-10T03:55:00.574Z,0.21
2016-03-10T03:56:00.592Z,0.25
2016-03-10T03:57:00.595Z,0.21
2016-03-10T03:58:00.613Z,0.18
2016-03-10T03:59:00.631Z,0.11
2016-03-10T04:00:00.634Z,0.05
2016-03-10T04:01:00.637Z,0.11
2016-03-10T04:02:00.655Z,0.08
2016-03-10T04:03:00.658Z,0.11
2016-03-10T04:04:00.786Z,0.03
2016-03-10T04:05:00.695Z,0.04
2016-03-10T04:06:00.697Z,0.11
2016-03-10T04:07:00.700Z,0.11
2016-03-10T04:08:00.765Z,0.1
2016-03-10T04:09:00.736Z,0.01
2016-03-10T04:10:00.786Z,0.11
2016-03-10T04:11:00.757Z,0.07
2016-03-10T04:12:00.776Z,0.01
2016-03-10T04:13:00.778Z,0.07
2016-03-10T04:14:00.875Z,0.07
2016-03-10T04:15:00.799Z,0.05
2016-03-10T04:16:00.880Z,0.01
2016-03-10T04:17:00.820Z,-0.06
2016-03-10T04:18:00.886Z,0.01
2016-03-10T04:19:00.842Z,-0.07
2016-03-10T04:20:00.891Z,-0.03
2016-03-10T04:21:00.863Z,-0.06
2016-03-10T04:22:00.897Z,-0.14
2016-03-10T04:23:00.931Z,-0.17
2016-03-10T04:24:00.934Z,-0.15
2016-03-10T04:25:00.905Z,-0.2
2016-03-10T04:26:00.939Z,-0.25
2016-03-10T04:27:00.175Z,-0.26
2016-03-10T04:28:00.959Z,-0.21
2016-03-10T04:29:00.947Z,-0.29
2016-03-10T04:30:00.981Z,-0.28
2016-03-10T04:31:00.983Z,-0.29
2016-03-10T04:32:00.970Z,-0.32
2016-03-10T04:33:01.005Z,-0.34
2016-03-10T04:34:01.008Z,-0.39
2016-03-10T04:35:01.025Z,-0.43
2016-03-10T04:36:01.090Z,-0.39
2016-03-10T04:37:01.030Z,-0.39
2016-03-10T04:38:01.080Z,-0.35
2016-03-10T04:39:01.052Z,-0.38
2016-03-10T04:40:01.101Z,-0.44
2016-03-10T04:41:01.088Z,-0.36
2016-03-10T04:42:01.137Z,-0.28
2016-03-10T04:43:01.109Z,-0.25
2016-03-10T04:44:01.112Z,-0.32
2016-03-10T04:45:01.146Z,-0.31
2016-03-10T04:46:01.132Z,-0.32
2016-03-10T04:47:01.167Z,-0.39
2016-03-10T04:48:01.185Z,-0.39
2016-03-10T04:49:01.173Z,-0.36
2016-03-10T04:50:01.190Z,-0.46
2016-03-10T04:51:01.193Z,-0.47
2016-03-10T04:52:01.242Z,-0.5
2016-03-10T04:53:01.215Z,-0.52
2016-03-10T04:54:01.248Z,-0.5
2016-03-10T04:55:01.267Z,-0.53
2016-03-10T04:56:01.253Z,-0.65
2016-03-10T04:57:01.287Z,-0.56
2016-03-10T04:58:01.274Z,-0.67
2016-03-10T04:59:01.278Z,-0.54
2016-03-10T05:00:01.295Z,-0.61
2016-03-10T05:01:01.298Z,-0.62
2016-03-10T05:02:01.347Z,-0.54
2016-03-10T05:03:01.335Z,-0.56
2016-03-10T05:04:01.338Z,-0.64
2016-03-10T05:05:01.386Z,-0.59
2016-03-10T05:06:01.374Z,-0.62
2016-03-10T05:07:01.377Z,-0.57
2016-03-10T05:08:01.380Z,-0.61
2016-03-10T05:09:01.397Z,-0.61
2016-03-10T05:10:01.400Z,-0.65
2016-03-10T05:11:01.419Z,-0.68
2016-03-10T05:12:01.438Z,-0.68
2016-03-10T05:13:01.441Z,-0.67
2016-03-10T05:14:01.458Z,-0.59
2016-03-10T05:15:01.477Z,-0.71
2016-03-10T05:16:01.463Z,-0.68
2016-03-10T05:17:01.498Z,-0.72
2016-03-10T05:18:01.485Z,-0.65
2016-03-10T05:19:01.534Z,-0.74
2016-03-10T05:20:01.521Z,-0.68
2016-03-10T05:21:01.524Z,-0.65
2016-03-10T05:22:01.557Z,-0.64
2016-03-10T05:23:01.545Z,-0.71
2016-03-10T05:24:01.563Z,-0.65
2016-03-10T05:25:01.581Z,-0.67
2016-03-10T05:26:01.584Z,-0.64
2016-03-10T05:27:01.603Z,-0.68
2016-03-10T05:28:01.606Z,-0.67
2016-03-10T05:29:01.608Z,-0.64
2016-03-10T05:30:01.626Z,-0.67
2016-03-10T05:31:01.645Z,-0.64
2016-03-10T05:32:01.663Z,-0.59
2016-03-10T05:33:01.650Z,-0.62
2016-03-10T05:34:01.668Z,-0.53
2016-03-10T05:35:01.686Z,-0.61
2016-03-10T05:36:01.533Z,-0.61
2016-03-10T05:37:01.707Z,-0.53
2016-03-10T05:38:01.710Z,-0.53
2016-03-10T05:39:01.744Z,-0.47
2016-03-10T05:40:01.746Z,-0.52
2016-03-10T05:41:01.733Z,-0.47
2016-03-10T05:42:01.783Z,-0.39
2016-03-10T05:43:01.771Z,-0.49
2016-03-10T05:44:01.789Z,-0.5
2016-03-10T05:45:01.776Z,-0.53
2016-03-10T05:46:01.779Z,-0.67
2016-03-10T05:47:01.813Z,-0.57
2016-03-10T05:48:01.816Z,-0.65
2016-03-10T05:49:01.834Z,-0.67
2016-03-10T05:50:01.868Z,-0.71
2016-03-10T05:51:01.855Z,-0.67
2016-03-10T05:52:01.873Z,-0.7
2016-03-10T05:53:01.860Z,-0.67
2016-03-10T05:54:01.893Z,-0.72
2016-03-10T05:55:01.881Z,-0.7
2016-03-10T05:56:01.899Z,-0.62
2016-03-10T05:57:01.917Z,-0.7
2016-03-10T05:58:01.936Z,-0.67
2016-03-10T05:59:01.939Z,-0.68
2016-03-10T06:00:01.956Z,-0.67
2016-03-10T06:01:01.975Z,-0.71
2016-03-10T06:02:01.993Z,-0.57
2016-03-10T06:03:01.996Z,-0.57
2016-03-10T06:04:01.842Z,-0.62
2016-03-10T06:05:02.002Z,-0.64
2016-03-10T06:06:02.018Z,-0.62
2016-03-10T06:07:01.864Z,-0.56
2016-03-10T06:08:02.039Z,-0.54
2016-03-10T06:09:02.073Z,-0.5
2016-03-10T06:10:02.060Z,-0.54
2016-03-10T06:11:02.078Z,-0.43
2016-03-10T06:12:02.080Z,-0.46
2016-03-10T06:13:02.099Z,-0.44
2016-03-10T06:14:02.102Z,-0.39
2016-03-10T06:15:02.120Z,-0.36
2016-03-10T06:16:02.154Z,-0.39
2016-03-10T06:17:02.157Z,-0.28
2016-03-10T06:18:02.160Z,-0.28
2016-03-10T06:19:02.163Z,-0.31
2016-03-10T06:20:02.180Z,-0.21
2016-03-10T06:21:02.168Z,-0.17
2016-03-10T06:22:02.201Z,-0.23
2016-03-10T06:23:02.204Z,-0.17
2016-03-10T06:24:02.238Z,-0.11
2016-03-10T06:25:02.225Z,-0.13
2016-03-10T06:26:02.243Z,-0.1
2016-03-10T06:27:02.262Z,-0.18
2016-03-10T06:28:02.279Z,-0.03
2016-03-10T06:29:02.267Z,-0.15
2016-03-10T06:30:02.285Z,-0.13
2016-03-10T06:31:02.288Z,-0.2
2016-03-10T06:32:02.337Z,-0.15
2016-03-10T06:33:02.310Z,-0.1
2016-03-10T06:34:02.343Z,-0.15
2016-03-10T06:35:02.331Z,-0.06
2016-03-10T06:36:02.364Z,-0.1
2016-03-10T06:37:02.367Z,-0.14
2016-03-10T06:38:02.369Z,0.03
2016-03-10T06:39:02.388Z,0.04
2016-03-10T06:40:02.390Z,0.03
2016-03-10T06:41:02.409Z,0
2016-03-10T06:42:02.411Z,0.05
2016-03-10T06:43:02.430Z,0.16
2016-03-10T06:44:02.433Z,0.16
2016-03-10T06:45:02.483Z,0.19
2016-03-10T06:46:02.469Z,0.22
2016-03-10T06:47:02.472Z,0.23
2016-03-10T06:48:02.491Z,0.22
2016-03-10T06:49:02.494Z,0.37
2016-03-10T06:50:02.527Z,0.39
2016-03-10T06:51:02.513Z,0.39
2016-03-10T06:52:02.548Z,0.4
2016-03-10T06:53:02.566Z,0.4
2016-03-10T06:54:02.538Z,0.59
2016-03-10T06:55:02.587Z,0.47
2016-03-10T06:56:02.574Z,0.62
2016-03-10T06:57:02.592Z,0.65
2016-03-10T06:58:02.611Z,0.68
2016-03-10T06:59:02.613Z,0.76
2016-03-10T07:00:02.476Z,0.77
2016-03-10T07:01:02.651Z,0.87
2016-03-10T07:02:02.654Z,0.92
2016-03-10T07:03:02.656Z,0.95
2016-03-10T07:04:02.674Z,1.06
2016-03-10T07:05:02.692Z,1.12
2016-03-10T07:06:02.695Z,1.19
2016-03-10T07:07:02.698Z,1.24
2016-03-10T07:08:02.732Z,1.31
2016-03-10T07:09:02.718Z,1.44
2016-03-10T07:10:02.736Z,1.49
2016-03-10T07:11:02.770Z,1.59
2016-03-10T07:12:02.758Z,1.67
2016-03-10T07:13:02.776Z,1.77
2016-03-10T07:14:02.778Z,1.78
2016-03-10T07:15:02.814Z,1.88
2016-03-10T07:16:02.816Z,1.92
2016-03-10T07:17:02.819Z,1.88
2016-03-10T07:18:02.836Z,2.04
2016-03-10T07:19:02.855Z,2.15
2016-03-10T07:20:02.857Z,2.25
2016-03-10T07:21:02.861Z,2.22
2016-03-10T07:22:02.894Z,2.36
2016-03-10T07:23:02.897Z,2.39
2016-03-10T07:24:02.899Z,2.57
2016-03-10T07:25:02.933Z,2.54
2016-03-10T07:26:03.061Z,2.62
2016-03-10T07:27:02.954Z,2.64
2016-03-10T07:28:03.019Z,2.68
2016-03-10T07:29:02.960Z,2.82
2016-03-10T07:30:03.025Z,2.83
2016-03-10T07:31:02.996Z,2.89
2016-03-10T07:32:03.015Z,2.93
2016-03-10T07:33:03.017Z,3.05
2016-03-10T07:34:03.068Z,3.08
2016-03-10T07:35:03.054Z,3.16
2016-03-10T07:36:03.088Z,3.18
2016-03-10T07:37:03.075Z,3.23
2016-03-10T07:38:03.140Z,3.21
2016-03-10T07:39:03.096Z,3.29
2016-03-10T07:40:03.145Z,3.34
2016-03-10T07:41:03.117Z,3.34
2016-03-10T07:42:03.182Z,3.42
2016-03-10T07:43:03.170Z,3.47
2016-03-10T07:44:03.187Z,3.56
2016-03-10T07:45:03.190Z,3.59
2016-03-10T07:46:03.178Z,3.59
2016-03-10T07:47:03.206Z,3.7
2016-03-10T07:48:03.217Z,3.69
2016-03-10T07:49:03.229Z,3.78
2016-03-10T07:50:03.210Z,3.73
2016-03-10T07:51:03.207Z,3.86
2016-03-10T07:52:03.237Z,3.88
2016-03-10T07:53:03.254Z,3.94
2016-03-10T07:54:03.269Z,3.92
2016-03-10T07:55:03.269Z,3.98
2016-03-10T07:56:03.255Z,3.98
2016-03-10T07:57:03.287Z,4.01
2016-03-10T07:58:03.368Z,3.98
2016-03-10T07:59:03.338Z,4.02
2016-03-10T08:00:03.324Z,4.13
2016-03-10T08:01:03.326Z,4.12
2016-03-10T08:02:03.344Z,4.24
2016-03-10T08:03:03.378Z,4.31
2016-03-10T08:04:03.396Z,4.41
2016-03-10T08:05:04.819Z,4.31
2016-03-10T08:06:03.401Z,4.34
2016-03-10T08:07:03.387Z,4.4
2016-03-10T08:08:03.436Z,4.37
2016-03-10T08:09:03.439Z,4.35
2016-03-10T08:10:03.457Z,4.4
2016-03-10T08:11:03.460Z,4.42
2016-03-10T08:12:03.478Z,4.5
2016-03-10T08:13:03.497Z,4.5
2016-03-10T08:14:03.499Z,4.52
2016-03-10T08:15:03.518Z,4.56
2016-03-10T08:16:03.520Z,4.63
2016-03-10T08:17:03.539Z,4.66
2016-03-10T08:18:03.573Z,4.71
2016-03-10T08:19:03.575Z,4.67
2016-03-10T08:20:03.594Z,4.74
2016-03-10T08:21:03.596Z,4.73
2016-03-10T08:22:03.600Z,4.82
2016-03-10T08:23:03.617Z,4.82
2016-03-10T08:24:03.636Z,4.87
2016-03-10T08:25:03.669Z,4.97
2016-03-10T08:26:03.672Z,4.93
2016-03-10T08:27:03.691Z,4.94
2016-03-10T08:28:03.677Z,5.12
2016-03-10T08:29:03.696Z,5.08
2016-03-10T08:30:02.965Z,5
2016-03-10T08:31:03.733Z,5.12
2016-03-10T08:32:03.751Z,5.1
2016-03-10T08:33:03.754Z,5.14
2016-03-10T08:34:03.757Z,5.18
2016-03-10T08:35:03.837Z,5.18
2016-03-10T08:36:03.824Z,5.26
2016-03-10T08:37:03.826Z,5.26
2016-03-10T08:38:03.830Z,5.25
2016-03-10T08:39:03.832Z,5.12
2016-03-10T08:40:03.867Z,5.15
2016-03-10T08:41:03.870Z,5.23
2016-03-10T08:42:03.950Z,5.33
2016-03-10T08:43:03.890Z,5.38
2016-03-10T08:44:03.799Z,5.38
2016-03-10T08:45:03.927Z,5.47
2016-03-10T08:46:03.992Z,5.41
2016-03-10T08:47:04.025Z,5.46
2016-03-10T08:48:04.044Z,5.47
2016-03-10T08:49:03.984Z,5.51
2016-03-10T08:50:04.049Z,5.57
2016-03-10T08:51:04.036Z,5.66
2016-03-10T08:52:04.055Z,5.69
2016-03-10T08:53:04.027Z,5.75
2016-03-10T08:54:04.092Z,5.75
2016-03-10T08:55:04.078Z,5.69
2016-03-10T08:56:04.097Z,5.84
2016-03-10T08:57:04.084Z,5.86
2016-03-10T08:58:04.133Z,5.89
2016-03-10T08:59:03.838Z,5.9
2016-03-10T09:00:04.185Z,5.91
2016-03-10T09:01:04.141Z,5.82
2016-03-10T09:02:04.160Z,5.82
2016-03-10T09:03:04.162Z,5.89
2016-03-10T09:04:04.182Z,5.89
2016-03-10T09:05:04.215Z,5.87
2016-03-10T09:06:04.233Z,6.02
2016-03-10T09:07:04.216Z,5.99
2016-03-10T09:08:04.250Z,6.09
2016-03-10T09:09:04.253Z,6.14
2016-03-10T09:10:04.271Z,6.01
2016-03-10T09:11:04.289Z,6.04
2016-03-10T09:12:04.308Z,6.01
2016-03-10T09:13:04.311Z,6.07
2016-03-10T09:14:04.360Z,5.99
2016-03-10T09:15:04.346Z,6.05
2016-03-10T09:16:04.366Z,6.16
2016-03-10T09:17:04.352Z,6.27
2016-03-10T09:18:04.402Z,6.24
2016-03-10T09:19:04.404Z,6.27
2016-03-10T09:20:04.407Z,6.31
2016-03-10T09:21:04.426Z,6.27
2016-03-10T09:22:04.428Z,6.26
2016-03-10T09:23:04.463Z,6.19
2016-03-10T09:24:04.465Z,6.26
2016-03-10T09:25:04.498Z,6.26
2016-03-10T09:26:04.486Z,6.33
2016-03-10T09:27:04.504Z,6.41
2016-03-10T09:28:04.523Z,6.44
2016-03-10T09:29:04.557Z,6.49
2016-03-10T09:30:04.545Z,6.36
2016-03-10T09:31:04.562Z,6.38
2016-03-10T09:32:02.814Z,6.51
2016-03-10T09:33:04.598Z,6.44
2016-03-10T09:34:04.633Z,6.35
2016-03-10T09:35:04.635Z,6.41
2016-03-10T09:36:04.669Z,6.38
2016-03-10T09:37:04.656Z,6.33
2016-03-10T09:38:04.675Z,6.42
2016-03-10T09:39:04.708Z,6.42
2016-03-10T09:40:04.743Z,6.41
2016-03-10T09:41:04.714Z,6.44
2016-03-10T09:42:04.577Z,6.44
2016-03-10T09:43:04.797Z,6.33
2016-03-10T09:44:04.660Z,6.27
2016-03-10T09:45:04.788Z,6.27
2016-03-10T09:46:04.790Z,6.2
2016-03-10T09:47:04.808Z,6.17
2016-03-10T09:48:04.827Z,6.17
2016-03-10T09:49:04.829Z,6.28
2016-03-10T09:50:04.852Z,6.26
2016-03-10T09:51:04.871Z,6.28
2016-03-10T09:52:04.874Z,6.49
2016-03-10T09:53:04.892Z,6.42
2016-03-10T09:54:04.909Z,6.46
2016-03-10T09:55:04.913Z,6.46
2016-03-10T09:56:04.947Z,6.46
2016-03-10T09:57:04.950Z,6.52
2016-03-10T09:58:04.968Z,6.62
2016-03-10T09:59:05.034Z,6.69
2016-03-10T10:00:05.020Z,6.63
2016-03-10T10:01:05.006Z,6.66
2016-03-10T10:02:05.010Z,6.67
2016-03-10T10:03:05.028Z,6.85
2016-03-10T10:04:05.047Z,6.93
2016-03-10T10:05:05.064Z,6.96
2016-03-10T10:06:05.067Z,6.95
2016-03-10T10:07:05.086Z,6.93
2016-03-10T10:08:05.104Z,6.84
2016-03-10T10:09:05.122Z,6.81
2016-03-10T10:10:05.156Z,6.72
2016-03-10T10:11:05.143Z,6.64
2016-03-10T10:12:05.161Z,6.64
2016-03-10T10:13:05.180Z,6.74
2016-03-10T10:14:05.198Z,6.72
2016-03-10T10:15:05.216Z,6.75
2016-03-10T10:16:05.203Z,6.89
2016-03-10T10:17:05.254Z,6.96
2016-03-10T10:18:05.256Z,6.89
2016-03-10T10:19:05.274Z,7.02
2016-03-10T10:20:05.340Z,7.07
2016-03-10T10:21:05.295Z,6.99
2016-03-10T10:22:08.313Z,7.02
2016-03-10T10:23:05.332Z,7.06
2016-03-10T10:24:05.335Z,7.17
2016-03-10T10:25:05.353Z,7.21
2016-03-10T10:26:04.605Z,7.05
2016-03-10T10:27:05.373Z,7.03
2016-03-10T10:28:05.392Z,7.13
2016-03-10T10:29:05.411Z,7.02
2016-03-10T10:30:05.429Z,7.06
2016-03-10T10:31:19.509Z,7.03
2016-03-10T10:32:05.450Z,7.07
2016-03-10T10:33:05.468Z,7.06
2016-03-10T10:34:05.502Z,7.02
2016-03-10T10:35:05.505Z,7.06
2016-03-10T10:36:05.523Z,7.25
2016-03-10T10:37:05.525Z,7.42
2016-03-10T10:38:05.544Z,7.47
2016-03-10T10:39:05.563Z,7.56
2016-03-10T10:40:05.565Z,7.53
2016-03-10T10:41:05.583Z,7.51
2016-03-10T10:42:05.602Z,7.43
2016-03-10T10:43:05.604Z,7.38
2016-03-10T10:44:05.622Z,7.28
2016-03-10T10:45:05.657Z,7.31
2016-03-10T10:46:05.674Z,7.28
2016-03-10T10:47:05.678Z,7.38
2016-03-10T10:48:05.680Z,7.45
2016-03-10T10:49:05.699Z,7.4
2016-03-10T10:50:05.717Z,7.39
2016-03-10T10:51:05.735Z,7.42
2016-03-10T10:52:05.738Z,7.47
2016-03-10T10:53:05.756Z,7.51
2016-03-10T10:54:05.759Z,7.5
2016-03-10T10:55:05.793Z,7.42
2016-03-10T10:56:05.812Z,7.31
2016-03-10T10:57:05.829Z,7.2
2016-03-10T10:58:05.832Z,7.15
2016-03-10T10:59:05.866Z,7.03
2016-03-10T11:00:05.869Z,6.99
2016-03-10T11:01:05.872Z,7.11
2016-03-10T11:02:05.890Z,7.03
2016-03-10T11:03:05.909Z,6.99
2016-03-10T11:04:05.911Z,6.97
2016-03-10T11:05:05.945Z,6.96
2016-03-10T11:06:05.947Z,6.85
2016-03-10T11:07:05.966Z,6.87
2016-03-10T11:08:05.983Z,6.96
2016-03-10T11:09:05.987Z,6.92
2016-03-10T11:10:06.005Z,6.78
2016-03-10T11:11:06.023Z,6.84
2016-03-10T11:12:06.041Z,6.79
2016-03-10T11:13:06.044Z,6.82
2016-03-10T11:14:06.078Z,6.85
2016-03-10T11:15:06.081Z,6.92
2016-03-10T11:16:06.490Z,6.93
2016-03-10T11:17:06.133Z,7
2016-03-10T11:18:06.136Z,7.02
2016-03-10T11:19:06.138Z,7.1
2016-03-10T11:20:06.157Z,7.03
2016-03-10T11:21:06.159Z,7.06
2016-03-10T11:22:06.162Z,7.1
2016-03-10T11:23:06.196Z,7.06
2016-03-10T11:24:06.199Z,7
2016-03-10T11:25:06.217Z,7.06
2016-03-10T11:26:06.251Z,7.06
2016-03-10T11:27:06.254Z,7.23
2016-03-10T11:28:06.288Z,7.17
2016-03-10T11:29:06.290Z,7.25
2016-03-10T11:30:06.325Z,7.21
2016-03-10T11:31:06.328Z,7.28
2016-03-10T11:32:06.330Z,7.36
2016-03-10T11:33:06.192Z,7.42
2016-03-10T11:34:06.367Z,7.42
2016-03-10T11:35:06.369Z,7.5
2016-03-10T11:36:06.419Z,7.48
2016-03-10T11:37:06.406Z,7.54
2016-03-10T11:38:06.456Z,7.51
2016-03-10T11:39:06.427Z,7.57
2016-03-10T11:40:06.461Z,7.58
2016-03-10T11:41:06.463Z,7.7
2016-03-10T11:42:06.497Z,7.67
2016-03-10T11:43:06.500Z,7.66
2016-03-10T11:44:06.518Z,7.63
2016-03-10T11:45:06.521Z,7.85
2016-03-10T11:46:06.524Z,7.93
2016-03-10T11:47:06.541Z,7.83
2016-03-10T11:48:06.576Z,7.83
2016-03-10T11:49:06.594Z,7.9
2016-03-10T11:50:06.582Z,7.91
2016-03-10T11:51:06.615Z,8.03
2016-03-10T11:52:06.618Z,8.09
2016-03-10T11:53:06.652Z,8.05
2016-03-10T11:54:06.655Z,8.09
2016-03-10T11:55:06.688Z,8.06
2016-03-10T11:56:06.691Z,8.03
2016-03-10T11:57:06.710Z,8.1
2016-03-10T11:58:06.729Z,8.08
2016-03-10T11:59:06.731Z,8.15
2016-03-10T12:00:06.749Z,8.24
2016-03-10T12:01:06.799Z,8.31
2016-03-10T12:02:06.786Z,8.3
2016-03-10T12:03:06.789Z,8.37
2016-03-10T12:04:06.791Z,8.42
2016-03-10T12:05:06.841Z,8.46
2016-03-10T12:06:06.842Z,8.46
2016-03-10T12:07:06.862Z,8.45
2016-03-10T12:08:06.881Z,8.48
2016-03-10T12:09:06.882Z,8.3
2016-03-10T12:10:06.901Z,8.34
2016-03-10T12:11:06.919Z,8.33
2016-03-10T12:12:06.937Z,8.37
2016-03-10T12:13:06.940Z,8.34
2016-03-10T12:14:06.989Z,8.33
2016-03-10T12:15:06.992Z,8.41
2016-03-10T12:16:06.994Z,8.37
2016-03-10T12:17:07.014Z,8.41
2016-03-10T12:18:07.047Z,8.46
2016-03-10T12:19:07.035Z,8.51
2016-03-10T12:20:07.069Z,8.48
2016-03-10T12:21:07.071Z,8.58
2016-03-10T12:22:07.121Z,8.55
2016-03-10T12:23:07.108Z,8.58
2016-03-10T12:24:07.157Z,8.52
2016-03-10T12:25:07.144Z,8.55
2016-03-10T12:26:07.163Z,8.64
2016-03-10T12:27:07.181Z,8.64
2016-03-10T12:28:07.168Z,8.55
2016-03-10T12:29:07.187Z,8.52
2016-03-10T12:30:07.237Z,8.49
2016-03-10T12:31:07.254Z,8.41
2016-03-10T12:32:07.304Z,8.33
2016-03-10T12:33:07.242Z,8.26
2016-03-10T12:34:07.387Z,8.31
2016-03-10T12:35:07.325Z,8.18
2016-03-10T12:36:07.359Z,8.13
2016-03-10T12:37:07.331Z,8.09
2016-03-10T12:38:07.348Z,8.09
2016-03-10T12:39:07.351Z,8.01
2016-03-10T12:40:07.401Z,8.01
2016-03-10T12:41:07.389Z,8
2016-03-10T12:42:07.437Z,7.98
2016-03-10T12:43:07.425Z,8.01
2016-03-10T12:44:07.443Z,8.05
2016-03-10T12:45:07.445Z,8.12
2016-03-10T12:46:07.480Z,8.13
2016-03-10T12:47:07.467Z,8.12
2016-03-10T12:48:07.500Z,8.15
2016-03-10T12:49:07.488Z,8.12
2016-03-10T12:50:07.537Z,8.08
2016-03-10T12:51:07.524Z,8.06
2016-03-10T12:52:07.527Z,8.05
2016-03-10T12:53:07.561Z,7.88
2016-03-10T12:54:07.564Z,7.85
2016-03-10T12:55:07.629Z,7.9
2016-03-10T12:56:07.600Z,7.83
2016-03-10T12:57:07.634Z,7.85
2016-03-10T12:58:07.637Z,7.88
2016-03-10T12:59:07.654Z,8.01
2016-03-10T13:00:07.657Z,8.03
2016-03-10T13:01:07.676Z,8.05
2016-03-10T13:02:07.710Z,8.09
2016-03-10T13:03:07.713Z,8.09
2016-03-10T13:04:07.732Z,8.08
2016-03-10T13:05:07.749Z,8.1
2016-03-10T13:06:07.752Z,8.08
2016-03-10T13:07:07.770Z,8.06
2016-03-10T13:08:07.773Z,7.98
2016-03-10T13:09:08.417Z,7.97
2016-03-10T13:10:07.810Z,8
2016-03-10T13:11:07.844Z,8.03
2016-03-10T13:12:07.831Z,8.09
2016-03-10T13:13:07.864Z,8.18
2016-03-10T13:14:07.874Z,8.27
2016-03-10T13:15:07.893Z,8.27
2016-03-10T13:16:07.911Z,8.33
2016-03-10T13:17:07.914Z,8.28